sensor_id;sensor_type;location;lat;lon;timestamp;temperature;humidity
17956;DHT22;27666;51.498;11.966;2023-05-29T00:00:33;14.80;99.90
17956;DHT22;27666;51.498;11.966;2023-05-29T00:03:53;14.80;99.90
17956;DHT22;27666;51.498;11.966;2023-05-29T00:06:40;14.60;99.90
17956;DHT22;27666;51.498;11.966;2023-05-29T00:09:27;14.60;99.90
17956;DHT22;27666;51.498;11.966;2023-05-29T00:12:14;14.60;99.90
17956;DHT22;27666;51.498;11.966;2023-05-29T00:15:01;14.60;99.90
17956;DHT22;27666;51.498;11.966;2023-05-29T00:18:22;14.50;99.90
17956;DHT22;27666;51.498;11.966;2023-05-29T00:21:24;14.50;99.90
17956;DHT22;27666;51.498;11.966;2023-05-29T00:24:11;14.40;99.90
17956;DHT22;27666;51.498;11.966;2023-05-29T00:26:57;14.40;99.90
17956;DHT22;27666;51.498;11.966;2023-05-29T00:29:43;14.30;99.90
17956;DHT22;27666;51.498;11.966;2023-05-29T00:32:30;14.30;99.90
17956;DHT22;27666;51.498;11.966;2023-05-29T00:35:17;14.30;99.90
17956;DHT22;27666;51.498;11.966;2023-05-29T00:38:04;14.20;99.90
17956;DHT22;27666;51.498;11.966;2023-05-29T00:40:51;14.20;99.90
17956;DHT22;27666;51.498;11.966;2023-05-29T00:43:37;14.20;99.90
17956;DHT22;27666;51.498;11.966;2023-05-29T00:46:23;14.10;99.90
17956;DHT22;27666;51.498;11.966;2023-05-29T00:49:10;14.10;99.90
17956;DHT22;27666;51.498;11.966;2023-05-29T00:52:15;14.10;99.90
17956;DHT22;27666;51.498;11.966;2023-05-29T00:55:19;14.00;99.90
17956;DHT22;27666;51.498;11.966;2023-05-29T00:58:08;14.10;99.90
17956;DHT22;27666;51.498;11.966;2023-05-29T01:01:14;14.10;99.90
17956;DHT22;27666;51.498;11.966;2023-05-29T01:04:03;14.10;99.90
17956;DHT22;27666;51.498;11.966;2023-05-29T01:06:50;14.00;99.90
17956;DHT22;27666;51.498;11.966;2023-05-29T01:09:37;13.90;99.90
17956;DHT22;27666;51.498;11.966;2023-05-29T01:12:35;13.80;99.90
17956;DHT22;27666;51.498;11.966;2023-05-29T01:15:31;13.70;99.90
17956;DHT22;27666;51.498;11.966;2023-05-29T01:18:29;13.70;99.90
17956;DHT22;27666;51.498;11.966;2023-05-29T01:21:23;13.70;99.90
17956;DHT22;27666;51.498;11.966;2023-05-29T01:24:23;13.80;99.90
17956;DHT22;27666;51.498;11.966;2023-05-29T01:27:15;13.70;99.90
17956;DHT22;27666;51.498;11.966;2023-05-29T01:30:04;13.70;99.90
17956;DHT22;27666;51.498;11.966;2023-05-29T01:32:52;13.70;99.90
17956;DHT22;27666;51.498;11.966;2023-05-29T01:35:38;13.70;99.90
17956;DHT22;27666;51.498;11.966;2023-05-29T01:38:59;13.60;99.90
17956;DHT22;27666;51.498;11.966;2023-05-29T01:41:58;13.50;99.90
17956;DHT22;27666;51.498;11.966;2023-05-29T01:44:46;13.50;99.90
17956;DHT22;27666;51.498;11.966;2023-05-29T01:47:33;13.50;99.90
17956;DHT22;27666;51.498;11.966;2023-05-29T01:50:40;13.50;99.90
17956;DHT22;27666;51.498;11.966;2023-05-29T01:53:29;13.50;99.90
17956;DHT22;27666;51.498;11.966;2023-05-29T01:56:15;13.50;99.90
17956;DHT22;27666;51.498;11.966;2023-05-29T01:59:03;13.50;99.90
17956;DHT22;27666;51.498;11.966;2023-05-29T02:01:51;13.50;99.90
17956;DHT22;27666;51.498;11.966;2023-05-29T02:04:38;13.50;99.90
17956;DHT22;27666;51.498;11.966;2023-05-29T02:07:25;13.50;99.90
17956;DHT22;27666;51.498;11.966;2023-05-29T02:10:11;13.60;99.90
17956;DHT22;27666;51.498;11.966;2023-05-29T02:12:58;13.60;99.90
17956;DHT22;27666;51.498;11.966;2023-05-29T02:15:44;13.50;99.90
17956;DHT22;27666;51.498;11.966;2023-05-29T02:18:49;13.50;99.90
17956;DHT22;27666;51.498;11.966;2023-05-29T02:21:38;13.40;99.90
17956;DHT22;27666;51.498;11.966;2023-05-29T02:24:42;13.50;99.90
17956;DHT22;27666;51.498;11.966;2023-05-29T02:27:29;13.50;99.90
17956;DHT22;27666;51.498;11.966;2023-05-29T02:30:30;13.30;99.90
17956;DHT22;27666;51.498;11.966;2023-05-29T02:33:16;13.20;99.90
17956;DHT22;27666;51.498;11.966;2023-05-29T02:36:05;13.10;99.90
17956;DHT22;27666;51.498;11.966;2023-05-29T02:38:55;13.00;99.90
17956;DHT22;27666;51.498;11.966;2023-05-29T02:41:41;13.00;99.90
17956;DHT22;27666;51.498;11.966;2023-05-29T02:44:28;12.90;99.90
17956;DHT22;27666;51.498;11.966;2023-05-29T02:47:29;13.00;99.90
17956;DHT22;27666;51.498;11.966;2023-05-29T02:50:16;12.90;99.90
17956;DHT22;27666;51.498;11.966;2023-05-29T02:53:03;12.90;99.90
17956;DHT22;27666;51.498;11.966;2023-05-29T02:55:51;12.80;99.90
17956;DHT22;27666;51.498;11.966;2023-05-29T02:58:37;12.70;99.90
17956;DHT22;27666;51.498;11.966;2023-05-29T03:01:24;12.60;99.90
17956;DHT22;27666;51.498;11.966;2023-05-29T03:04:10;12.70;99.90
17956;DHT22;27666;51.498;11.966;2023-05-29T03:06:57;12.70;99.90
17956;DHT22;27666;51.498;11.966;2023-05-29T03:09:45;12.70;99.90
17956;DHT22;27666;51.498;11.966;2023-05-29T03:12:32;12.60;99.90
17956;DHT22;27666;51.498;11.966;2023-05-29T03:15:18;12.70;99.90
17956;DHT22;27666;51.498;11.966;2023-05-29T03:18:05;12.50;99.90
17956;DHT22;27666;51.498;11.966;2023-05-29T03:20:53;12.50;99.90
17956;DHT22;27666;51.498;11.966;2023-05-29T03:23:40;12.60;99.90
17956;DHT22;27666;51.498;11.966;2023-05-29T03:26:28;12.70;99.90
17956;DHT22;27666;51.498;11.966;2023-05-29T03:29:15;12.60;99.90
17956;DHT22;27666;51.498;11.966;2023-05-29T03:32:02;12.60;99.90
17956;DHT22;27666;51.498;11.966;2023-05-29T03:34:49;12.70;99.90
17956;DHT22;27666;51.498;11.966;2023-05-29T03:37:35;12.80;99.90
17956;DHT22;27666;51.498;11.966;2023-05-29T03:40:22;12.80;99.90
17956;DHT22;27666;51.498;11.966;2023-05-29T03:43:10;12.80;99.90
17956;DHT22;27666;51.498;11.966;2023-05-29T03:45:56;12.90;99.90
17956;DHT22;27666;51.498;11.966;2023-05-29T03:48:43;13.00;99.90
17956;DHT22;27666;51.498;11.966;2023-05-29T03:51:47;13.00;99.90
17956;DHT22;27666;51.498;11.966;2023-05-29T03:54:33;13.20;99.90
17956;DHT22;27666;51.498;11.966;2023-05-29T03:57:20;13.40;99.90
17956;DHT22;27666;51.498;11.966;2023-05-29T04:00:28;13.60;99.90
17956;DHT22;27666;51.498;11.966;2023-05-29T04:03:14;13.80;99.90
17956;DHT22;27666;51.498;11.966;2023-05-29T04:06:16;14.00;99.90
17956;DHT22;27666;51.498;11.966;2023-05-29T04:09:03;14.20;99.90
17956;DHT22;27666;51.498;11.966;2023-05-29T04:11:50;14.40;99.90
17956;DHT22;27666;51.498;11.966;2023-05-29T04:14:37;14.50;99.90
17956;DHT22;27666;51.498;11.966;2023-05-29T04:17:25;14.50;99.90
17956;DHT22;27666;51.498;11.966;2023-05-29T04:20:12;14.70;99.90
17956;DHT22;27666;51.498;11.966;2023-05-29T04:22:58;14.80;99.90
17956;DHT22;27666;51.498;11.966;2023-05-29T04:25:45;15.20;99.90
17956;DHT22;27666;51.498;11.966;2023-05-29T04:28:31;15.30;99.90
17956;DHT22;27666;51.498;11.966;2023-05-29T04:31:54;15.50;99.90
17956;DHT22;27666;51.498;11.966;2023-05-29T04:34:42;15.70;99.90
17956;DHT22;27666;51.498;11.966;2023-05-29T04:37:29;15.80;99.90
17956;DHT22;27666;51.498;11.966;2023-05-29T04:40:16;15.90;99.90
17956;DHT22;27666;51.498;11.966;2023-05-29T04:43:21;16.10;99.90
17956;DHT22;27666;51.498;11.966;2023-05-29T04:46:08;16.30;99.90
17956;DHT22;27666;51.498;11.966;2023-05-29T04:48:57;16.60;99.90
17956;DHT22;27666;51.498;11.966;2023-05-29T04:51:45;16.70;99.90
17956;DHT22;27666;51.498;11.966;2023-05-29T04:54:32;16.90;99.90
17956;DHT22;27666;51.498;11.966;2023-05-29T04:57:20;17.00;99.90
17956;DHT22;27666;51.498;11.966;2023-05-29T05:00:08;17.20;99.90
17956;DHT22;27666;51.498;11.966;2023-05-29T05:02:59;17.60;99.90
17956;DHT22;27666;51.498;11.966;2023-05-29T05:08:54;18.30;99.90
17956;DHT22;27666;51.498;11.966;2023-05-29T05:11:40;18.50;99.90
17956;DHT22;27666;51.498;11.966;2023-05-29T05:14:28;18.60;99.90
17956;DHT22;27666;51.498;11.966;2023-05-29T05:17:15;18.90;99.90
17956;DHT22;27666;51.498;11.966;2023-05-29T05:20:01;19.10;99.90
17956;DHT22;27666;51.498;11.966;2023-05-29T05:22:51;19.10;99.90
17956;DHT22;27666;51.498;11.966;2023-05-29T05:25:39;19.60;99.90
17956;DHT22;27666;51.498;11.966;2023-05-29T05:28:25;20.10;99.90
17956;DHT22;27666;51.498;11.966;2023-05-29T05:31:12;20.60;99.90
17956;DHT22;27666;51.498;11.966;2023-05-29T05:33:58;20.60;99.90
17956;DHT22;27666;51.498;11.966;2023-05-29T05:36:45;21.10;99.90
17956;DHT22;27666;51.498;11.966;2023-05-29T05:39:31;21.70;99.40
17956;DHT22;27666;51.498;11.966;2023-05-29T05:42:19;22.30;97.80
17956;DHT22;27666;51.498;11.966;2023-05-29T05:45:07;23.30;96.30
17956;DHT22;27666;51.498;11.966;2023-05-29T05:47:56;24.20;94.90
17956;DHT22;27666;51.498;11.966;2023-05-29T05:50:43;24.80;93.20
17956;DHT22;27666;51.498;11.966;2023-05-29T05:53:29;24.70;92.20
17956;DHT22;27666;51.498;11.966;2023-05-29T05:56:15;25.30;91.50
17956;DHT22;27666;51.498;11.966;2023-05-29T05:59:03;25.60;90.10
17956;DHT22;27666;51.498;11.966;2023-05-29T06:01:50;26.20;88.30
17956;DHT22;27666;51.498;11.966;2023-05-29T06:04:51;26.50;86.60
17956;DHT22;27666;51.498;11.966;2023-05-29T06:07:38;27.00;84.50
17956;DHT22;27666;51.498;11.966;2023-05-29T06:10:24;27.80;81.50
17956;DHT22;27666;51.498;11.966;2023-05-29T06:13:12;27.40;80.20
17956;DHT22;27666;51.498;11.966;2023-05-29T06:16:00;27.70;79.90
17956;DHT22;27666;51.498;11.966;2023-05-29T06:18:47;26.80;78.40
17956;DHT22;27666;51.498;11.966;2023-05-29T06:21:34;26.30;79.30
17956;DHT22;27666;51.498;11.966;2023-05-29T06:24:20;26.90;77.60
17956;DHT22;27666;51.498;11.966;2023-05-29T06:27:07;27.00;77.50
17956;DHT22;27666;51.498;11.966;2023-05-29T06:29:53;25.80;78.40
17956;DHT22;27666;51.498;11.966;2023-05-29T06:32:41;26.30;79.00
17956;DHT22;27666;51.498;11.966;2023-05-29T06:35:28;26.20;77.20
17956;DHT22;27666;51.498;11.966;2023-05-29T06:38:14;26.70;77.00
17956;DHT22;27666;51.498;11.966;2023-05-29T06:41:01;27.70;75.90
17956;DHT22;27666;51.498;11.966;2023-05-29T06:43:47;28.90;73.30
17956;DHT22;27666;51.498;11.966;2023-05-29T06:46:34;29.10;72.10
17956;DHT22;27666;51.498;11.966;2023-05-29T06:49:22;29.10;70.80
17956;DHT22;27666;51.498;11.966;2023-05-29T06:52:08;29.20;70.20
17956;DHT22;27666;51.498;11.966;2023-05-29T06:54:54;29.50;68.30
17956;DHT22;27666;51.498;11.966;2023-05-29T06:57:41;29.40;67.90
17956;DHT22;27666;51.498;11.966;2023-05-29T07:00:28;29.20;67.50
17956;DHT22;27666;51.498;11.966;2023-05-29T07:03:15;28.20;68.00
17956;DHT22;27666;51.498;11.966;2023-05-29T07:06:03;27.80;67.40
17956;DHT22;27666;51.498;11.966;2023-05-29T07:08:51;27.20;68.00
17956;DHT22;27666;51.498;11.966;2023-05-29T07:11:38;27.40;68.40
17956;DHT22;27666;51.498;11.966;2023-05-29T07:14:24;27.20;69.00
17956;DHT22;27666;51.498;11.966;2023-05-29T07:17:11;27.30;69.10
17956;DHT22;27666;51.498;11.966;2023-05-29T07:19:57;27.40;68.00
17956;DHT22;27666;51.498;11.966;2023-05-29T07:22:45;27.30;67.80
17956;DHT22;27666;51.498;11.966;2023-05-29T07:25:32;27.80;67.90
17956;DHT22;27666;51.498;11.966;2023-05-29T07:28:18;28.30;66.00
17956;DHT22;27666;51.498;11.966;2023-05-29T07:31:07;28.00;65.10
17956;DHT22;27666;51.498;11.966;2023-05-29T07:33:54;27.80;66.70
17956;DHT22;27666;51.498;11.966;2023-05-29T07:36:56;27.40;66.40
17956;DHT22;27666;51.498;11.966;2023-05-29T07:39:44;26.70;67.00
17956;DHT22;27666;51.498;11.966;2023-05-29T07:42:31;26.30;68.60
17956;DHT22;27666;51.498;11.966;2023-05-29T07:45:18;26.40;68.90
17956;DHT22;27666;51.498;11.966;2023-05-29T07:48:04;26.10;69.00
17956;DHT22;27666;51.498;11.966;2023-05-29T07:50:51;26.30;69.90
17956;DHT22;27666;51.498;11.966;2023-05-29T07:53:38;26.40;67.70
17956;DHT22;27666;51.498;11.966;2023-05-29T07:56:27;26.40;67.80
17956;DHT22;27666;51.498;11.966;2023-05-29T07:59:13;26.30;68.60
17956;DHT22;27666;51.498;11.966;2023-05-29T08:02:00;25.80;69.60
17956;DHT22;27666;51.498;11.966;2023-05-29T08:04:48;25.70;69.20
17956;DHT22;27666;51.498;11.966;2023-05-29T08:07:36;25.70;68.60
17956;DHT22;27666;51.498;11.966;2023-05-29T08:10:23;25.60;69.60
17956;DHT22;27666;51.498;11.966;2023-05-29T08:13:10;25.20;69.90
17956;DHT22;27666;51.498;11.966;2023-05-29T08:15:59;25.00;70.50
17956;DHT22;27666;51.498;11.966;2023-05-29T08:18:46;25.20;69.10
17956;DHT22;27666;51.498;11.966;2023-05-29T08:21:32;25.10;70.20
17956;DHT22;27666;51.498;11.966;2023-05-29T08:24:18;25.10;70.30
17956;DHT22;27666;51.498;11.966;2023-05-29T08:27:05;25.00;70.50
17956;DHT22;27666;51.498;11.966;2023-05-29T08:29:53;24.60;71.50
17956;DHT22;27666;51.498;11.966;2023-05-29T08:32:40;24.70;72.50
17956;DHT22;27666;51.498;11.966;2023-05-29T08:35:27;24.60;70.80
17956;DHT22;27666;51.498;11.966;2023-05-29T08:38:14;24.30;72.20
17956;DHT22;27666;51.498;11.966;2023-05-29T08:41:00;24.90;73.20
17956;DHT22;27666;51.498;11.966;2023-05-29T08:43:48;25.40;70.90
17956;DHT22;27666;51.498;11.966;2023-05-29T08:46:37;25.30;70.60
17956;DHT22;27666;51.498;11.966;2023-05-29T08:49:25;25.00;71.30
17956;DHT22;27666;51.498;11.966;2023-05-29T08:52:16;24.70;72.20
17956;DHT22;27666;51.498;11.966;2023-05-29T08:55:03;24.50;72.20
17956;DHT22;27666;51.498;11.966;2023-05-29T08:57:50;24.00;73.20
17956;DHT22;27666;51.498;11.966;2023-05-29T09:00:36;23.70;74.30
17956;DHT22;27666;51.498;11.966;2023-05-29T09:03:24;23.70;74.00
17956;DHT22;27666;51.498;11.966;2023-05-29T09:06:10;23.70;74.70
17956;DHT22;27666;51.498;11.966;2023-05-29T09:08:58;24.00;74.40
17956;DHT22;27666;51.498;11.966;2023-05-29T09:11:44;23.70;74.80
17956;DHT22;27666;51.498;11.966;2023-05-29T09:14:35;23.70;74.80
17956;DHT22;27666;51.498;11.966;2023-05-29T09:17:22;23.90;75.40
17956;DHT22;27666;51.498;11.966;2023-05-29T09:20:16;23.90;74.50
17956;DHT22;27666;51.498;11.966;2023-05-29T09:23:05;23.80;74.50
17956;DHT22;27666;51.498;11.966;2023-05-29T09:25:53;23.80;73.90
17956;DHT22;27666;51.498;11.966;2023-05-29T09:28:39;23.40;74.70
17956;DHT22;27666;51.498;11.966;2023-05-29T09:31:26;23.50;75.30
17956;DHT22;27666;51.498;11.966;2023-05-29T09:34:13;23.70;74.40
17956;DHT22;27666;51.498;11.966;2023-05-29T09:37:03;23.60;74.00
17956;DHT22;27666;51.498;11.966;2023-05-29T09:39:53;23.40;74.90
17956;DHT22;27666;51.498;11.966;2023-05-29T09:42:39;23.30;75.90
17956;DHT22;27666;51.498;11.966;2023-05-29T09:45:26;23.30;75.80
17956;DHT22;27666;51.498;11.966;2023-05-29T09:48:14;23.30;75.30
17956;DHT22;27666;51.498;11.966;2023-05-29T09:51:02;23.50;74.70
17956;DHT22;27666;51.498;11.966;2023-05-29T09:53:50;23.50;75.30
17956;DHT22;27666;51.498;11.966;2023-05-29T09:56:40;23.80;74.90
17956;DHT22;27666;51.498;11.966;2023-05-29T09:59:28;23.90;74.40
17956;DHT22;27666;51.498;11.966;2023-05-29T10:02:15;24.30;74.00
17956;DHT22;27666;51.498;11.966;2023-05-29T10:05:05;24.10;73.30
17956;DHT22;27666;51.498;11.966;2023-05-29T10:07:54;23.90;73.30
17956;DHT22;27666;51.498;11.966;2023-05-29T10:10:43;23.60;73.60
17956;DHT22;27666;51.498;11.966;2023-05-29T10:13:34;23.90;73.90
17956;DHT22;27666;51.498;11.966;2023-05-29T10:16:23;24.00;73.00
17956;DHT22;27666;51.498;11.966;2023-05-29T10:19:12;23.80;73.10
17956;DHT22;27666;51.498;11.966;2023-05-29T10:22:01;24.30;74.30
17956;DHT22;27666;51.498;11.966;2023-05-29T10:24:48;24.80;72.20
17956;DHT22;27666;51.498;11.966;2023-05-29T10:27:39;24.80;71.10
17956;DHT22;27666;51.498;11.966;2023-05-29T10:30:33;24.50;72.60
17956;DHT22;27666;51.498;11.966;2023-05-29T10:33:31;24.40;73.60
17956;DHT22;27666;51.498;11.966;2023-05-29T10:36:22;24.70;72.90
17956;DHT22;27666;51.498;11.966;2023-05-29T10:39:11;24.60;73.70
17956;DHT22;27666;51.498;11.966;2023-05-29T10:41:58;24.30;72.90
17956;DHT22;27666;51.498;11.966;2023-05-29T10:44:47;24.30;73.40
17956;DHT22;27666;51.498;11.966;2023-05-29T10:47:33;24.10;72.60
17956;DHT22;27666;51.498;11.966;2023-05-29T10:50:35;24.30;73.70
17956;DHT22;27666;51.498;11.966;2023-05-29T10:53:24;24.00;72.40
17956;DHT22;27666;51.498;11.966;2023-05-29T10:56:16;23.50;72.80
17956;DHT22;27666;51.498;11.966;2023-05-29T10:59:07;23.10;74.90
17956;DHT22;27666;51.498;11.966;2023-05-29T11:01:56;22.80;75.80
17956;DHT22;27666;51.498;11.966;2023-05-29T11:05:04;22.80;76.30
17956;DHT22;27666;51.498;11.966;2023-05-29T11:07:53;22.90;75.60
17956;DHT22;27666;51.498;11.966;2023-05-29T11:10:55;22.50;75.60
17956;DHT22;27666;51.498;11.966;2023-05-29T11:13:51;22.40;76.80
17956;DHT22;27666;51.498;11.966;2023-05-29T11:16:39;22.30;76.60
17956;DHT22;27666;51.498;11.966;2023-05-29T11:19:27;22.30;77.90
17956;DHT22;27666;51.498;11.966;2023-05-29T11:22:20;22.60;77.70
17956;DHT22;27666;51.498;11.966;2023-05-29T11:25:09;22.90;74.40
17956;DHT22;27666;51.498;11.966;2023-05-29T11:27:57;23.00;74.20
17956;DHT22;27666;51.498;11.966;2023-05-29T11:30:45;23.30;74.70
17956;DHT22;27666;51.498;11.966;2023-05-29T11:33:32;23.20;73.50
17956;DHT22;27666;51.498;11.966;2023-05-29T11:36:21;23.40;74.50
17956;DHT22;27666;51.498;11.966;2023-05-29T11:39:09;23.40;73.90
17956;DHT22;27666;51.498;11.966;2023-05-29T11:41:55;23.30;74.00
17956;DHT22;27666;51.498;11.966;2023-05-29T11:44:42;23.30;73.60
17956;DHT22;27666;51.498;11.966;2023-05-29T11:47:29;23.30;73.60
17956;DHT22;27666;51.498;11.966;2023-05-29T11:50:18;23.10;73.70
17956;DHT22;27666;51.498;11.966;2023-05-29T11:53:07;23.00;74.60
17956;DHT22;27666;51.498;11.966;2023-05-29T11:55:53;23.20;74.90
17956;DHT22;27666;51.498;11.966;2023-05-29T11:58:51;23.40;74.30
17956;DHT22;27666;51.498;11.966;2023-05-29T12:01:40;23.50;73.20
17956;DHT22;27666;51.498;11.966;2023-05-29T12:04:28;23.40;73.00
17956;DHT22;27666;51.498;11.966;2023-05-29T12:07:18;23.20;74.20
17956;DHT22;27666;51.498;11.966;2023-05-29T12:10:14;23.10;74.10
17956;DHT22;27666;51.498;11.966;2023-05-29T12:13:01;22.80;72.90
17956;DHT22;27666;51.498;11.966;2023-05-29T12:15:49;22.70;74.20
17956;DHT22;27666;51.498;11.966;2023-05-29T12:18:38;22.80;74.10
17956;DHT22;27666;51.498;11.966;2023-05-29T12:21:24;22.90;74.60
17956;DHT22;27666;51.498;11.966;2023-05-29T12:24:13;22.70;73.60
17956;DHT22;27666;51.498;11.966;2023-05-29T12:27:03;22.40;74.10
17956;DHT22;27666;51.498;11.966;2023-05-29T12:29:59;22.40;73.80
17956;DHT22;27666;51.498;11.966;2023-05-29T12:32:47;22.60;74.50
17956;DHT22;27666;51.498;11.966;2023-05-29T12:35:34;22.70;74.10
17956;DHT22;27666;51.498;11.966;2023-05-29T12:38:22;22.70;74.90
17956;DHT22;27666;51.498;11.966;2023-05-29T12:41:09;22.80;74.30
17956;DHT22;27666;51.498;11.966;2023-05-29T12:44:08;22.80;74.90
17956;DHT22;27666;51.498;11.966;2023-05-29T12:46:56;23.10;74.90
17956;DHT22;27666;51.498;11.966;2023-05-29T12:49:43;23.20;75.50
17956;DHT22;27666;51.498;11.966;2023-05-29T12:52:29;23.10;76.20
17956;DHT22;27666;51.498;11.966;2023-05-29T12:55:16;23.10;74.70
17956;DHT22;27666;51.498;11.966;2023-05-29T12:58:02;23.00;75.30
17956;DHT22;27666;51.498;11.966;2023-05-29T13:00:53;22.70;74.70
17956;DHT22;27666;51.498;11.966;2023-05-29T13:03:42;22.40;74.40
17956;DHT22;27666;51.498;11.966;2023-05-29T13:06:28;22.50;75.10
17956;DHT22;27666;51.498;11.966;2023-05-29T13:09:15;22.50;75.70
17956;DHT22;27666;51.498;11.966;2023-05-29T13:12:02;22.60;76.20
17956;DHT22;27666;51.498;11.966;2023-05-29T13:14:48;22.70;76.30
17956;DHT22;27666;51.498;11.966;2023-05-29T13:17:36;22.70;76.60
17956;DHT22;27666;51.498;11.966;2023-05-29T13:20:25;22.60;76.70
17956;DHT22;27666;51.498;11.966;2023-05-29T13:23:12;22.30;76.00
17956;DHT22;27666;51.498;11.966;2023-05-29T13:25:58;22.30;76.00
17956;DHT22;27666;51.498;11.966;2023-05-29T13:28:45;22.30;75.60
17956;DHT22;27666;51.498;11.966;2023-05-29T13:31:31;22.30;74.20
17956;DHT22;27666;51.498;11.966;2023-05-29T13:34:19;22.30;75.80
17956;DHT22;27666;51.498;11.966;2023-05-29T13:37:08;22.40;76.40
17956;DHT22;27666;51.498;11.966;2023-05-29T13:39:54;22.40;74.60
17956;DHT22;27666;51.498;11.966;2023-05-29T13:42:41;22.40;72.80
17956;DHT22;27666;51.498;11.966;2023-05-29T13:45:28;22.50;73.60
17956;DHT22;27666;51.498;11.966;2023-05-29T13:48:15;22.80;75.10
17956;DHT22;27666;51.498;11.966;2023-05-29T13:51:03;23.10;75.10
17956;DHT22;27666;51.498;11.966;2023-05-29T13:53:51;23.40;74.10
17956;DHT22;27666;51.498;11.966;2023-05-29T13:56:37;23.70;74.00
17956;DHT22;27666;51.498;11.966;2023-05-29T13:59:24;24.00;72.50
17956;DHT22;27666;51.498;11.966;2023-05-29T14:02:11;24.10;72.30
17956;DHT22;27666;51.498;11.966;2023-05-29T14:04:58;23.90;72.30
17956;DHT22;27666;51.498;11.966;2023-05-29T14:07:45;23.40;72.40
17956;DHT22;27666;51.498;11.966;2023-05-29T14:10:32;23.10;70.70
17956;DHT22;27666;51.498;11.966;2023-05-29T14:13:18;23.10;72.20
17956;DHT22;27666;51.498;11.966;2023-05-29T14:16:05;23.10;73.90
17956;DHT22;27666;51.498;11.966;2023-05-29T14:18:52;23.10;72.80
17956;DHT22;27666;51.498;11.966;2023-05-29T14:21:39;23.10;72.70
17956;DHT22;27666;51.498;11.966;2023-05-29T14:24:26;22.90;73.00
17956;DHT22;27666;51.498;11.966;2023-05-29T14:27:13;23.10;74.20
17956;DHT22;27666;51.498;11.966;2023-05-29T14:29:59;23.20;72.70
17956;DHT22;27666;51.498;11.966;2023-05-29T14:32:46;22.90;73.20
17956;DHT22;27666;51.498;11.966;2023-05-29T14:35:33;22.90;73.60
17956;DHT22;27666;51.498;11.966;2023-05-29T14:38:19;22.90;74.10
17956;DHT22;27666;51.498;11.966;2023-05-29T14:41:07;22.90;74.40
17956;DHT22;27666;51.498;11.966;2023-05-29T14:43:54;23.00;74.70
17956;DHT22;27666;51.498;11.966;2023-05-29T14:46:43;22.90;74.80
17956;DHT22;27666;51.498;11.966;2023-05-29T14:49:30;22.90;75.20
17956;DHT22;27666;51.498;11.966;2023-05-29T14:52:18;22.70;75.80
17956;DHT22;27666;51.498;11.966;2023-05-29T14:55:05;22.70;76.00
17956;DHT22;27666;51.498;11.966;2023-05-29T14:57:53;22.50;76.00
17956;DHT22;27666;51.498;11.966;2023-05-29T15:00:40;22.40;76.10
17956;DHT22;27666;51.498;11.966;2023-05-29T15:03:27;22.30;76.10
17956;DHT22;27666;51.498;11.966;2023-05-29T15:06:14;22.20;77.00
17956;DHT22;27666;51.498;11.966;2023-05-29T15:09:00;22.20;76.60
17956;DHT22;27666;51.498;11.966;2023-05-29T15:11:46;22.20;76.80
17956;DHT22;27666;51.498;11.966;2023-05-29T15:14:34;22.30;75.80
17956;DHT22;27666;51.498;11.966;2023-05-29T15:17:20;22.30;76.20
17956;DHT22;27666;51.498;11.966;2023-05-29T15:20:08;22.20;75.90
17956;DHT22;27666;51.498;11.966;2023-05-29T15:22:55;22.20;77.40
17956;DHT22;27666;51.498;11.966;2023-05-29T15:25:41;22.30;77.10
17956;DHT22;27666;51.498;11.966;2023-05-29T15:28:27;22.20;75.80
17956;DHT22;27666;51.498;11.966;2023-05-29T15:31:15;22.30;76.10
17956;DHT22;27666;51.498;11.966;2023-05-29T15:34:03;22.30;75.70
17956;DHT22;27666;51.498;11.966;2023-05-29T15:36:49;22.20;76.20
17956;DHT22;27666;51.498;11.966;2023-05-29T15:39:36;22.20;76.30
17956;DHT22;27666;51.498;11.966;2023-05-29T15:42:23;22.20;76.40
17956;DHT22;27666;51.498;11.966;2023-05-29T15:45:10;22.10;76.80
17956;DHT22;27666;51.498;11.966;2023-05-29T15:47:59;22.20;76.80
17956;DHT22;27666;51.498;11.966;2023-05-29T15:50:45;22.20;75.70
17956;DHT22;27666;51.498;11.966;2023-05-29T15:53:32;22.20;76.00
17956;DHT22;27666;51.498;11.966;2023-05-29T15:56:18;22.30;76.30
17956;DHT22;27666;51.498;11.966;2023-05-29T15:59:10;22.30;75.90
17956;DHT22;27666;51.498;11.966;2023-05-29T16:01:56;22.30;75.20
17956;DHT22;27666;51.498;11.966;2023-05-29T16:04:44;22.30;75.30
17956;DHT22;27666;51.498;11.966;2023-05-29T16:07:50;22.30;74.10
17956;DHT22;27666;51.498;11.966;2023-05-29T16:10:37;22.40;74.20
17956;DHT22;27666;51.498;11.966;2023-05-29T16:13:26;22.30;73.70
17956;DHT22;27666;51.498;11.966;2023-05-29T16:16:15;22.30;72.90
17956;DHT22;27666;51.498;11.966;2023-05-29T16:19:02;22.30;73.20
17956;DHT22;27666;51.498;11.966;2023-05-29T16:21:52;22.20;73.30
17956;DHT22;27666;51.498;11.966;2023-05-29T16:24:38;22.20;73.10
17956;DHT22;27666;51.498;11.966;2023-05-29T16:27:25;22.00;73.50
17956;DHT22;27666;51.498;11.966;2023-05-29T16:30:11;22.10;73.80
17956;DHT22;27666;51.498;11.966;2023-05-29T16:32:58;22.00;74.60
17956;DHT22;27666;51.498;11.966;2023-05-29T16:35:45;21.90;75.30
17956;DHT22;27666;51.498;11.966;2023-05-29T16:38:33;21.80;75.60
17956;DHT22;27666;51.498;11.966;2023-05-29T16:41:19;21.70;74.90
17956;DHT22;27666;51.498;11.966;2023-05-29T16:44:06;21.70;75.00
17956;DHT22;27666;51.498;11.966;2023-05-29T16:46:52;21.60;74.20
17956;DHT22;27666;51.498;11.966;2023-05-29T16:49:39;21.50;74.50
17956;DHT22;27666;51.498;11.966;2023-05-29T16:52:26;21.40;74.90
17956;DHT22;27666;51.498;11.966;2023-05-29T16:55:14;21.30;75.50
17956;DHT22;27666;51.498;11.966;2023-05-29T16:58:01;21.20;75.90
17956;DHT22;27666;51.498;11.966;2023-05-29T17:00:48;21.10;75.20
17956;DHT22;27666;51.498;11.966;2023-05-29T17:03:35;21.00;75.10
17956;DHT22;27666;51.498;11.966;2023-05-29T17:06:22;20.90;75.40
17956;DHT22;27666;51.498;11.966;2023-05-29T17:09:08;20.90;75.50
17956;DHT22;27666;51.498;11.966;2023-05-29T17:11:56;20.90;75.70
17956;DHT22;27666;51.498;11.966;2023-05-29T17:14:43;20.90;74.80
17956;DHT22;27666;51.498;11.966;2023-05-29T17:17:29;20.90;74.90
17956;DHT22;27666;51.498;11.966;2023-05-29T17:20:16;20.90;75.10
17956;DHT22;27666;51.498;11.966;2023-05-29T17:23:03;21.00;74.50
17956;DHT22;27666;51.498;11.966;2023-05-29T17:25:49;21.00;74.50
17956;DHT22;27666;51.498;11.966;2023-05-29T17:28:37;21.00;74.40
17956;DHT22;27666;51.498;11.966;2023-05-29T17:31:23;20.90;74.50